sensor_id;sensor_type;location;lat;lon;timestamp;P1;durP1;ratioP1;P2;durP2;ratioP2
5133;SDS011;2585;48.696;10.066;2023-03-05T00:01:18;53.28;;;21.23;;
5133;SDS011;2585;48.696;10.066;2023-03-05T00:03:50;54.42;;;21.95;;
5133;SDS011;2585;48.696;10.066;2023-03-05T00:06:19;48.95;;;19.90;;
5133;SDS011;2585;48.696;10.066;2023-03-05T00:08:47;57.90;;;23.30;;
5133;SDS011;2585;48.696;10.066;2023-03-05T00:11:14;45.10;;;19.30;;
5133;SDS011;2585;48.696;10.066;2023-03-05T00:13:41;46.20;;;21.17;;
5133;SDS011;2585;48.696;10.066;2023-03-05T00:16:10;49.95;;;20.77;;
5133;SDS011;2585;48.696;10.066;2023-03-05T00:18:38;48.15;;;20.20;;
5133;SDS011;2585;48.696;10.066;2023-03-05T00:21:12;52.05;;;21.08;;
5133;SDS011;2585;48.696;10.066;2023-03-05T00:23:46;52.13;;;19.58;;
5133;SDS011;2585;48.696;10.066;2023-03-05T00:26:19;42.42;;;19.35;;
5133;SDS011;2585;48.696;10.066;2023-03-05T00:28:47;48.78;;;19.42;;
5133;SDS011;2585;48.696;10.066;2023-03-05T00:31:21;37.83;;;18.73;;
5133;SDS011;2585;48.696;10.066;2023-03-05T00:33:52;45.67;;;20.42;;
5133;SDS011;2585;48.696;10.066;2023-03-05T00:36:20;45.47;;;17.73;;
5133;SDS011;2585;48.696;10.066;2023-03-05T00:38:47;41.13;;;18.27;;
5133;SDS011;2585;48.696;10.066;2023-03-05T00:41:14;48.03;;;20.23;;
5133;SDS011;2585;48.696;10.066;2023-03-05T00:43:41;45.95;;;19.52;;
5133;SDS011;2585;48.696;10.066;2023-03-05T00:46:08;46.70;;;19.33;;
5133;SDS011;2585;48.696;10.066;2023-03-05T00:48:35;41.70;;;18.10;;
5133;SDS011;2585;48.696;10.066;2023-03-05T00:51:02;45.67;;;19.25;;
5133;SDS011;2585;48.696;10.066;2023-03-05T00:53:29;47.28;;;19.45;;
5133;SDS011;2585;48.696;10.066;2023-03-05T00:55:56;49.70;;;18.65;;
5133;SDS011;2585;48.696;10.066;2023-03-05T00:58:23;51.10;;;19.23;;
5133;SDS011;2585;48.696;10.066;2023-03-05T01:00:50;43.50;;;18.15;;
5133;SDS011;2585;48.696;10.066;2023-03-05T01:03:17;53.33;;;19.45;;
5133;SDS011;2585;48.696;10.066;2023-03-05T01:05:44;50.08;;;19.17;;
5133;SDS011;2585;48.696;10.066;2023-03-05T01:08:11;42.03;;;18.65;;
5133;SDS011;2585;48.696;10.066;2023-03-05T01:10:37;43.50;;;20.17;;
5133;SDS011;2585;48.696;10.066;2023-03-05T01:13:04;59.25;;;19.50;;
5133;SDS011;2585;48.696;10.066;2023-03-05T01:15:31;54.67;;;19.05;;
5133;SDS011;2585;48.696;10.066;2023-03-05T01:17:58;50.75;;;20.17;;
5133;SDS011;2585;48.696;10.066;2023-03-05T01:20:25;45.70;;;19.95;;
5133;SDS011;2585;48.696;10.066;2023-03-05T01:22:51;41.05;;;18.50;;
5133;SDS011;2585;48.696;10.066;2023-03-05T01:25:19;50.67;;;19.50;;
5133;SDS011;2585;48.696;10.066;2023-03-05T01:27:46;55.17;;;23.20;;
5133;SDS011;2585;48.696;10.066;2023-03-05T01:30:13;47.55;;;18.48;;
5133;SDS011;2585;48.696;10.066;2023-03-05T01:32:41;47.70;;;19.67;;
5133;SDS011;2585;48.696;10.066;2023-03-05T01:35:09;50.20;;;20.23;;
5133;SDS011;2585;48.696;10.066;2023-03-05T01:37:41;43.35;;;18.15;;
5133;SDS011;2585;48.696;10.066;2023-03-05T01:40:12;48.08;;;20.00;;
5133;SDS011;2585;48.696;10.066;2023-03-05T01:42:45;42.60;;;19.88;;
5133;SDS011;2585;48.696;10.066;2023-03-05T01:45:20;52.42;;;19.58;;
5133;SDS011;2585;48.696;10.066;2023-03-05T01:47:47;43.72;;;16.92;;
5133;SDS011;2585;48.696;10.066;2023-03-05T01:50:18;39.05;;;17.23;;
5133;SDS011;2585;48.696;10.066;2023-03-05T01:52:48;48.92;;;17.80;;
5133;SDS011;2585;48.696;10.066;2023-03-05T01:55:21;40.42;;;17.20;;
5133;SDS011;2585;48.696;10.066;2023-03-05T01:58:00;38.08;;;16.55;;
5133;SDS011;2585;48.696;10.066;2023-03-05T02:00:34;45.42;;;18.15;;
5133;SDS011;2585;48.696;10.066;2023-03-05T02:03:09;44.95;;;18.88;;
5133;SDS011;2585;48.696;10.066;2023-03-05T02:05:37;39.42;;;16.38;;
5133;SDS011;2585;48.696;10.066;2023-03-05T02:08:07;44.17;;;17.85;;
5133;SDS011;2585;48.696;10.066;2023-03-05T02:10:36;49.30;;;18.45;;
5133;SDS011;2585;48.696;10.066;2023-03-05T02:13:06;50.03;;;18.30;;
5133;SDS011;2585;48.696;10.066;2023-03-05T02:15:34;45.25;;;17.80;;
5133;SDS011;2585;48.696;10.066;2023-03-05T02:18:03;49.90;;;19.05;;
5133;SDS011;2585;48.696;10.066;2023-03-05T02:20:41;48.15;;;19.67;;
5133;SDS011;2585;48.696;10.066;2023-03-05T02:23:09;41.83;;;17.52;;
5133;SDS011;2585;48.696;10.066;2023-03-05T02:25:36;45.90;;;17.00;;
5133;SDS011;2585;48.696;10.066;2023-03-05T02:30:33;43.70;;;18.48;;
5133;SDS011;2585;48.696;10.066;2023-03-05T02:33:00;52.88;;;20.13;;
5133;SDS011;2585;48.696;10.066;2023-03-05T02:35:27;44.90;;;18.83;;
5133;SDS011;2585;48.696;10.066;2023-03-05T02:37:54;44.17;;;18.25;;
5133;SDS011;2585;48.696;10.066;2023-03-05T02:40:21;51.65;;;20.27;;
5133;SDS011;2585;48.696;10.066;2023-03-05T02:42:48;47.53;;;18.60;;
5133;SDS011;2585;48.696;10.066;2023-03-05T02:45:14;42.42;;;18.35;;
5133;SDS011;2585;48.696;10.066;2023-03-05T02:47:41;43.80;;;18.58;;
5133;SDS011;2585;48.696;10.066;2023-03-05T02:50:09;44.70;;;18.00;;
5133;SDS011;2585;48.696;10.066;2023-03-05T02:52:37;48.20;;;18.67;;
5133;SDS011;2585;48.696;10.066;2023-03-05T02:55:05;46.97;;;20.00;;
5133;SDS011;2585;48.696;10.066;2023-03-05T02:57:32;51.40;;;18.38;;
5133;SDS011;2585;48.696;10.066;2023-03-05T02:59:59;47.30;;;19.48;;
5133;SDS011;2585;48.696;10.066;2023-03-05T03:02:26;46.30;;;19.88;;
5133;SDS011;2585;48.696;10.066;2023-03-05T03:04:53;61.83;;;20.92;;
5133;SDS011;2585;48.696;10.066;2023-03-05T03:07:19;43.28;;;18.90;;
5133;SDS011;2585;48.696;10.066;2023-03-05T03:09:46;49.80;;;18.42;;
5133;SDS011;2585;48.696;10.066;2023-03-05T03:12:13;50.78;;;19.15;;
5133;SDS011;2585;48.696;10.066;2023-03-05T03:14:40;48.53;;;19.98;;
5133;SDS011;2585;48.696;10.066;2023-03-05T03:17:08;46.05;;;19.58;;
5133;SDS011;2585;48.696;10.066;2023-03-05T03:19:40;52.28;;;19.75;;
5133;SDS011;2585;48.696;10.066;2023-03-05T03:22:08;52.25;;;20.70;;
5133;SDS011;2585;48.696;10.066;2023-03-05T03:24:37;49.53;;;19.27;;
5133;SDS011;2585;48.696;10.066;2023-03-05T03:27:06;58.03;;;21.67;;
5133;SDS011;2585;48.696;10.066;2023-03-05T03:29:33;55.50;;;20.23;;
5133;SDS011;2585;48.696;10.066;2023-03-05T03:32:00;47.83;;;20.98;;
5133;SDS011;2585;48.696;10.066;2023-03-05T03:34:27;57.38;;;20.05;;
5133;SDS011;2585;48.696;10.066;2023-03-05T03:36:54;50.05;;;18.92;;
5133;SDS011;2585;48.696;10.066;2023-03-05T03:39:20;46.50;;;20.25;;
5133;SDS011;2585;48.696;10.066;2023-03-05T03:41:48;50.05;;;19.40;;
5133;SDS011;2585;48.696;10.066;2023-03-05T03:44:17;46.15;;;19.98;;
5133;SDS011;2585;48.696;10.066;2023-03-05T03:46:46;44.75;;;19.95;;
5133;SDS011;2585;48.696;10.066;2023-03-05T03:49:14;52.17;;;20.50;;
5133;SDS011;2585;48.696;10.066;2023-03-05T03:51:42;58.67;;;19.02;;
5133;SDS011;2585;48.696;10.066;2023-03-05T03:54:09;48.97;;;20.92;;
5133;SDS011;2585;48.696;10.066;2023-03-05T03:56:36;57.10;;;21.38;;
5133;SDS011;2585;48.696;10.066;2023-03-05T03:59:03;44.35;;;19.95;;
5133;SDS011;2585;48.696;10.066;2023-03-05T04:01:30;41.45;;;19.23;;
5133;SDS011;2585;48.696;10.066;2023-03-05T04:03:56;45.80;;;19.80;;
5133;SDS011;2585;48.696;10.066;2023-03-05T04:06:23;48.42;;;19.30;;
5133;SDS011;2585;48.696;10.066;2023-03-05T04:08:50;43.60;;;18.23;;
5133;SDS011;2585;48.696;10.066;2023-03-05T04:11:17;51.53;;;20.10;;
5133;SDS011;2585;48.696;10.066;2023-03-05T04:13:45;47.50;;;19.55;;
5133;SDS011;2585;48.696;10.066;2023-03-05T04:16:12;51.10;;;20.00;;
5133;SDS011;2585;48.696;10.066;2023-03-05T04:18:40;56.45;;;20.48;;
5133;SDS011;2585;48.696;10.066;2023-03-05T04:21:07;56.30;;;20.88;;
5133;SDS011;2585;48.696;10.066;2023-03-05T04:23:34;58.03;;;21.00;;
5133;SDS011;2585;48.696;10.066;2023-03-05T04:26:02;53.45;;;21.40;;
5133;SDS011;2585;48.696;10.066;2023-03-05T04:28:29;55.42;;;21.27;;
5133;SDS011;2585;48.696;10.066;2023-03-05T04:30:56;52.20;;;22.10;;
5133;SDS011;2585;48.696;10.066;2023-03-05T04:33:23;50.95;;;20.20;;
5133;SDS011;2585;48.696;10.066;2023-03-05T04:35:49;58.33;;;20.65;;
5133;SDS011;2585;48.696;10.066;2023-03-05T04:38:17;56.47;;;21.65;;
5133;SDS011;2585;48.696;10.066;2023-03-05T04:40:45;54.40;;;23.15;;
5133;SDS011;2585;48.696;10.066;2023-03-05T04:43:12;53.95;;;23.38;;
5133;SDS011;2585;48.696;10.066;2023-03-05T04:45:41;53.17;;;20.95;;
5133;SDS011;2585;48.696;10.066;2023-03-05T04:48:09;50.90;;;20.80;;
5133;SDS011;2585;48.696;10.066;2023-03-05T04:50:36;63.33;;;21.15;;
5133;SDS011;2585;48.696;10.066;2023-03-05T04:53:03;49.38;;;20.88;;
5133;SDS011;2585;48.696;10.066;2023-03-05T04:55:31;48.88;;;18.92;;
5133;SDS011;2585;48.696;10.066;2023-03-05T04:57:57;53.65;;;19.65;;
5133;SDS011;2585;48.696;10.066;2023-03-05T05:00:24;57.42;;;20.25;;
5133;SDS011;2585;48.696;10.066;2023-03-05T05:02:51;58.28;;;21.33;;
5133;SDS011;2585;48.696;10.066;2023-03-05T05:05:20;58.03;;;21.48;;
5133;SDS011;2585;48.696;10.066;2023-03-05T05:07:48;56.15;;;20.75;;
5133;SDS011;2585;48.696;10.066;2023-03-05T05:10:18;49.95;;;19.98;;
5133;SDS011;2585;48.696;10.066;2023-03-05T05:12:45;64.97;;;22.00;;
5133;SDS011;2585;48.696;10.066;2023-03-05T05:15:12;55.25;;;19.73;;
5133;SDS011;2585;48.696;10.066;2023-03-05T05:17:39;50.92;;;20.85;;
5133;SDS011;2585;48.696;10.066;2023-03-05T05:20:06;59.88;;;22.13;;
5133;SDS011;2585;48.696;10.066;2023-03-05T05:22:33;56.03;;;22.42;;
5133;SDS011;2585;48.696;10.066;2023-03-05T05:25:00;56.40;;;21.17;;
5133;SDS011;2585;48.696;10.066;2023-03-05T05:27:28;48.15;;;20.55;;
5133;SDS011;2585;48.696;10.066;2023-03-05T05:29:55;54.08;;;21.10;;
5133;SDS011;2585;48.696;10.066;2023-03-05T05:32:22;55.35;;;20.05;;
5133;SDS011;2585;48.696;10.066;2023-03-05T05:34:56;51.25;;;21.65;;
5133;SDS011;2585;48.696;10.066;2023-03-05T05:37:24;53.22;;;20.05;;
5133;SDS011;2585;48.696;10.066;2023-03-05T05:39:51;56.78;;;23.05;;
5133;SDS011;2585;48.696;10.066;2023-03-05T05:42:19;60.05;;;20.90;;
5133;SDS011;2585;48.696;10.066;2023-03-05T05:44:48;57.92;;;22.52;;
5133;SDS011;2585;48.696;10.066;2023-03-05T05:47:15;54.70;;;23.17;;
5133;SDS011;2585;48.696;10.066;2023-03-05T05:49:43;56.53;;;19.77;;
5133;SDS011;2585;48.696;10.066;2023-03-05T05:52:09;59.15;;;22.15;;
5133;SDS011;2585;48.696;10.066;2023-03-05T05:54:36;48.28;;;20.50;;
5133;SDS011;2585;48.696;10.066;2023-03-05T05:57:04;67.07;;;21.80;;
5133;SDS011;2585;48.696;10.066;2023-03-05T05:59:31;49.00;;;21.30;;
5133;SDS011;2585;48.696;10.066;2023-03-05T06:01:58;47.42;;;19.65;;
5133;SDS011;2585;48.696;10.066;2023-03-05T06:04:25;52.30;;;18.30;;
5133;SDS011;2585;48.696;10.066;2023-03-05T06:06:52;53.83;;;20.90;;
5133;SDS011;2585;48.696;10.066;2023-03-05T06:09:18;57.55;;;19.30;;
5133;SDS011;2585;48.696;10.066;2023-03-05T06:11:45;58.55;;;21.25;;
5133;SDS011;2585;48.696;10.066;2023-03-05T06:14:12;45.55;;;21.20;;
5133;SDS011;2585;48.696;10.066;2023-03-05T06:16:40;51.10;;;19.20;;
5133;SDS011;2585;48.696;10.066;2023-03-05T06:19:07;56.85;;;20.48;;
5133;SDS011;2585;48.696;10.066;2023-03-05T06:21:38;56.30;;;21.70;;
5133;SDS011;2585;48.696;10.066;2023-03-05T06:24:05;60.08;;;21.58;;
5133;SDS011;2585;48.696;10.066;2023-03-05T06:26:32;47.35;;;21.25;;
5133;SDS011;2585;48.696;10.066;2023-03-05T06:28:59;53.58;;;21.67;;
5133;SDS011;2585;48.696;10.066;2023-03-05T06:31:27;58.13;;;22.60;;
5133;SDS011;2585;48.696;10.066;2023-03-05T06:33:55;53.90;;;22.40;;
5133;SDS011;2585;48.696;10.066;2023-03-05T06:36:23;50.05;;;20.27;;
5133;SDS011;2585;48.696;10.066;2023-03-05T06:38:51;51.03;;;20.05;;
5133;SDS011;2585;48.696;10.066;2023-03-05T06:41:20;49.60;;;19.58;;
5133;SDS011;2585;48.696;10.066;2023-03-05T06:43:51;60.28;;;21.10;;
5133;SDS011;2585;48.696;10.066;2023-03-05T06:48:47;52.67;;;20.52;;
5133;SDS011;2585;48.696;10.066;2023-03-05T06:51:21;54.40;;;21.33;;
5133;SDS011;2585;48.696;10.066;2023-03-05T06:53:50;67.30;;;22.15;;
5133;SDS011;2585;48.696;10.066;2023-03-05T06:56:18;56.55;;;21.55;;
5133;SDS011;2585;48.696;10.066;2023-03-05T06:58:47;51.90;;;20.70;;
5133;SDS011;2585;48.696;10.066;2023-03-05T07:01:15;57.95;;;21.60;;
5133;SDS011;2585;48.696;10.066;2023-03-05T07:03:43;59.95;;;20.58;;
5133;SDS011;2585;48.696;10.066;2023-03-05T07:06:11;73.07;;;23.17;;
5133;SDS011;2585;48.696;10.066;2023-03-05T07:08:39;56.75;;;20.63;;
5133;SDS011;2585;48.696;10.066;2023-03-05T07:11:09;48.20;;;19.73;;
5133;SDS011;2585;48.696;10.066;2023-03-05T07:13:37;62.58;;;22.95;;
5133;SDS011;2585;48.696;10.066;2023-03-05T07:16:05;53.58;;;21.60;;
5133;SDS011;2585;48.696;10.066;2023-03-05T07:18:33;64.50;;;22.77;;
5133;SDS011;2585;48.696;10.066;2023-03-05T07:21:04;57.42;;;22.35;;
5133;SDS011;2585;48.696;10.066;2023-03-05T07:23:33;62.08;;;23.95;;
5133;SDS011;2585;48.696;10.066;2023-03-05T07:26:01;65.43;;;24.17;;
5133;SDS011;2585;48.696;10.066;2023-03-05T07:28:28;53.95;;;20.88;;
5133;SDS011;2585;48.696;10.066;2023-03-05T07:30:57;55.90;;;22.83;;
5133;SDS011;2585;48.696;10.066;2023-03-05T07:33:25;60.88;;;23.80;;
5133;SDS011;2585;48.696;10.066;2023-03-05T07:35:52;57.03;;;24.65;;
5133;SDS011;2585;48.696;10.066;2023-03-05T07:38:20;73.93;;;26.10;;
5133;SDS011;2585;48.696;10.066;2023-03-05T07:40:47;78.47;;;23.88;;
5133;SDS011;2585;48.696;10.066;2023-03-05T07:43:14;60.33;;;26.20;;
5133;SDS011;2585;48.696;10.066;2023-03-05T07:45:42;67.25;;;26.05;;
5133;SDS011;2585;48.696;10.066;2023-03-05T07:48:11;66.05;;;23.38;;
5133;SDS011;2585;48.696;10.066;2023-03-05T07:50:41;53.22;;;22.80;;
5133;SDS011;2585;48.696;10.066;2023-03-05T07:53:08;66.30;;;24.58;;
5133;SDS011;2585;48.696;10.066;2023-03-05T07:55:40;64.78;;;26.30;;
5133;SDS011;2585;48.696;10.066;2023-03-05T07:58:12;58.83;;;23.92;;
5133;SDS011;2585;48.696;10.066;2023-03-05T08:00:39;60.90;;;22.75;;
5133;SDS011;2585;48.696;10.066;2023-03-05T08:03:06;58.55;;;23.85;;
5133;SDS011;2585;48.696;10.066;2023-03-05T08:05:33;60.50;;;26.13;;
5133;SDS011;2585;48.696;10.066;2023-03-05T08:08:00;74.35;;;24.98;;
5133;SDS011;2585;48.696;10.066;2023-03-05T08:10:26;64.03;;;25.30;;
5133;SDS011;2585;48.696;10.066;2023-03-05T08:12:53;64.28;;;24.70;;
5133;SDS011;2585;48.696;10.066;2023-03-05T08:15:20;59.63;;;24.58;;
5133;SDS011;2585;48.696;10.066;2023-03-05T08:17:47;65.38;;;23.35;;
5133;SDS011;2585;48.696;10.066;2023-03-05T08:20:14;75.25;;;26.42;;
5133;SDS011;2585;48.696;10.066;2023-03-05T08:22:41;61.80;;;23.90;;
5133;SDS011;2585;48.696;10.066;2023-03-05T08:25:07;55.88;;;23.05;;
5133;SDS011;2585;48.696;10.066;2023-03-05T08:27:44;66.15;;;25.25;;
5133;SDS011;2585;48.696;10.066;2023-03-05T08:30:13;65.55;;;23.15;;
5133;SDS011;2585;48.696;10.066;2023-03-05T08:32:42;55.30;;;23.58;;
5133;SDS011;2585;48.696;10.066;2023-03-05T08:35:09;57.55;;;24.73;;
5133;SDS011;2585;48.696;10.066;2023-03-05T08:37:36;51.20;;;23.85;;
5133;SDS011;2585;48.696;10.066;2023-03-05T08:40:03;63.97;;;23.52;;
5133;SDS011;2585;48.696;10.066;2023-03-05T08:42:30;56.70;;;23.58;;
5133;SDS011;2585;48.696;10.066;2023-03-05T08:44:57;68.13;;;23.33;;
5133;SDS011;2585;48.696;10.066;2023-03-05T08:47:24;58.20;;;24.35;;
5133;SDS011;2585;48.696;10.066;2023-03-05T08:49:52;51.05;;;22.90;;
5133;SDS011;2585;48.696;10.066;2023-03-05T08:52:21;52.97;;;21.88;;
5133;SDS011;2585;48.696;10.066;2023-03-05T08:54:48;70.70;;;24.38;;
5133;SDS011;2585;48.696;10.066;2023-03-05T08:57:15;52.75;;;22.30;;
5133;SDS011;2585;48.696;10.066;2023-03-05T08:59:42;51.25;;;22.60;;
5133;SDS011;2585;48.696;10.066;2023-03-05T09:02:09;51.70;;;22.30;;
5133;SDS011;2585;48.696;10.066;2023-03-05T09:04:38;58.08;;;22.30;;
5133;SDS011;2585;48.696;10.066;2023-03-05T09:07:05;52.75;;;23.35;;
5133;SDS011;2585;48.696;10.066;2023-03-05T09:09:32;66.13;;;24.23;;
5133;SDS011;2585;48.696;10.066;2023-03-05T09:11:59;67.43;;;25.98;;
5133;SDS011;2585;48.696;10.066;2023-03-05T09:14:27;56.97;;;24.63;;
5133;SDS011;2585;48.696;10.066;2023-03-05T09:16:55;59.63;;;20.55;;
5133;SDS011;2585;48.696;10.066;2023-03-05T09:19:22;60.30;;;21.63;;
5133;SDS011;2585;48.696;10.066;2023-03-05T09:21:49;50.15;;;21.17;;
5133;SDS011;2585;48.696;10.066;2023-03-05T09:24:16;60.47;;;23.98;;
5133;SDS011;2585;48.696;10.066;2023-03-05T09:26:43;44.20;;;19.80;;
5133;SDS011;2585;48.696;10.066;2023-03-05T09:29:10;43.08;;;19.13;;
5133;SDS011;2585;48.696;10.066;2023-03-05T09:31:37;47.35;;;19.52;;
5133;SDS011;2585;48.696;10.066;2023-03-05T09:34:05;58.08;;;20.67;;
5133;SDS011;2585;48.696;10.066;2023-03-05T09:36:33;43.00;;;19.67;;
5133;SDS011;2585;48.696;10.066;2023-03-05T09:39:00;48.60;;;21.52;;
5133;SDS011;2585;48.696;10.066;2023-03-05T09:47:21;50.63;;;20.15;;
5133;SDS011;2585;48.696;10.066;2023-03-05T09:52:34;45.70;;;16.88;;
5133;SDS011;2585;48.696;10.066;2023-03-05T09:55:16;51.85;;;19.42;;
5133;SDS011;2585;48.696;10.066;2023-03-05T09:57:53;45.97;;;18.95;;
5133;SDS011;2585;48.696;10.066;2023-03-05T10:00:33;40.17;;;18.80;;
5133;SDS011;2585;48.696;10.066;2023-03-05T10:03:05;38.47;;;15.15;;
5133;SDS011;2585;48.696;10.066;2023-03-05T10:05:50;41.33;;;17.35;;
5133;SDS011;2585;48.696;10.066;2023-03-05T10:08:20;40.53;;;18.50;;
5133;SDS011;2585;48.696;10.066;2023-03-05T10:10:50;38.42;;;17.23;;
5133;SDS011;2585;48.696;10.066;2023-03-05T10:13:21;32.70;;;15.73;;
5133;SDS011;2585;48.696;10.066;2023-03-05T10:23:33;32.55;;;16.00;;
5133;SDS011;2585;48.696;10.066;2023-03-05T10:26:34;46.67;;;18.02;;
5133;SDS011;2585;48.696;10.066;2023-03-05T10:45:51;21.08;;;9.38;;
5133;SDS011;2585;48.696;10.066;2023-03-05T10:48:24;20.67;;;9.43;;
5133;SDS011;2585;48.696;10.066;2023-03-05T10:51:04;19.27;;;9.93;;
5133;SDS011;2585;48.696;10.066;2023-03-05T10:53:58;23.60;;;9.68;;
5133;SDS011;2585;48.696;10.066;2023-03-05T10:56:36;24.33;;;10.85;;
5133;SDS011;2585;48.696;10.066;2023-03-05T10:59:02;24.10;;;10.82;;
5133;SDS011;2585;48.696;10.066;2023-03-05T11:01:29;23.50;;;10.95;;
5133;SDS011;2585;48.696;10.066;2023-03-05T11:04:02;24.60;;;13.35;;
5133;SDS011;2585;48.696;10.066;2023-03-05T11:06:40;21.98;;;11.30;;
5133;SDS011;2585;48.696;10.066;2023-03-05T11:12:11;21.55;;;10.45;;
5133;SDS011;2585;48.696;10.066;2023-03-05T11:23:03;31.10;;;10.88;;
5133;SDS011;2585;48.696;10.066;2023-03-05T11:25:51;22.05;;;10.52;;
5133;SDS011;2585;48.696;10.066;2023-03-05T11:29:15;25.90;;;11.95;;
5133;SDS011;2585;48.696;10.066;2023-03-05T11:31:20;26.15;;;12.23;;
5133;SDS011;2585;48.696;10.066;2023-03-05T11:33:53;26.95;;;11.75;;
5133;SDS011;2585;48.696;10.066;2023-03-05T11:36:26;28.45;;;12.30;;
5133;SDS011;2585;48.696;10.066;2023-03-05T11:41:40;27.48;;;12.20;;
5133;SDS011;2585;48.696;10.066;2023-03-05T11:44:15;26.02;;;10.50;;
5133;SDS011;2585;48.696;10.066;2023-03-05T11:46:50;24.27;;;11.75;;
5133;SDS011;2585;48.696;10.066;2023-03-05T11:49:23;24.45;;;12.52;;
5133;SDS011;2585;48.696;10.066;2023-03-05T11:52:06;19.55;;;10.30;;
5133;SDS011;2585;48.696;10.066;2023-03-05T11:54:50;23.27;;;14.27;;
5133;SDS011;2585;48.696;10.066;2023-03-05T11:57:23;24.60;;;11.35;;
5133;SDS011;2585;48.696;10.066;2023-03-05T11:59:51;27.70;;;12.00;;
5133;SDS011;2585;48.696;10.066;2023-03-05T12:02:22;23.50;;;11.40;;
5133;SDS011;2585;48.696;10.066;2023-03-05T12:04:50;26.75;;;12.40;;
5133;SDS011;2585;48.696;10.066;2023-03-05T12:07:22;22.10;;;10.75;;
5133;SDS011;2585;48.696;10.066;2023-03-05T12:10:03;22.83;;;12.88;;
5133;SDS011;2585;48.696;10.066;2023-03-05T12:23:22;41.92;;;15.43;;
5133;SDS011;2585;48.696;10.066;2023-03-05T12:25:55;32.90;;;14.95;;
5133;SDS011;2585;48.696;10.066;2023-03-05T12:31:25;28.08;;;13.27;;
5133;SDS011;2585;48.696;10.066;2023-03-05T12:34:33;35.67;;;15.65;;
5133;SDS011;2585;48.696;10.066;2023-03-05T12:37:55;34.30;;;15.90;;
5133;SDS011;2585;48.696;10.066;2023-03-05T12:40:00;32.25;;;14.25;;
5133;SDS011;2585;48.696;10.066;2023-03-05T12:47:40;22.88;;;12.57;;
5133;SDS011;2585;48.696;10.066;2023-03-05T12:50:45;26.67;;;13.30;;
5133;SDS011;2585;48.696;10.066;2023-03-05T12:55:33;30.30;;;15.93;;
5133;SDS011;2585;48.696;10.066;2023-03-05T12:58:03;27.20;;;14.10;;
5133;SDS011;2585;48.696;10.066;2023-03-05T13:00:39;27.02;;;14.20;;
5133;SDS011;2585;48.696;10.066;2023-03-05T13:03:10;19.00;;;11.25;;
5133;SDS011;2585;48.696;10.066;2023-03-05T13:05:52;25.02;;;11.18;;
5133;SDS011;2585;48.696;10.066;2023-03-05T13:08:22;24.08;;;10.88;;
5133;SDS011;2585;48.696;10.066;2023-03-05T13:10:57;23.50;;;13.05;;
5133;SDS011;2585;48.696;10.066;2023-03-05T13:13:28;27.38;;;13.70;;
5133;SDS011;2585;48.696;10.066;2023-03-05T13:15:58;21.85;;;12.63;;
5133;SDS011;2585;48.696;10.066;2023-03-05T13:18:29;25.33;;;12.10;;
5133;SDS011;2585;48.696;10.066;2023-03-05T13:21:11;26.17;;;13.55;;
5133;SDS011;2585;48.696;10.066;2023-03-05T13:23:47;37.15;;;12.30;;
5133;SDS011;2585;48.696;10.066;2023-03-05T13:26:26;17.95;;;10.65;;
5133;SDS011;2585;48.696;10.066;2023-03-05T13:29:02;26.15;;;11.98;;
5133;SDS011;2585;48.696;10.066;2023-03-05T13:31:30;23.20;;;12.18;;
5133;SDS011;2585;48.696;10.066;2023-03-05T13:34:04;26.00;;;12.73;;
5133;SDS011;2585;48.696;10.066;2023-03-05T13:36:44;21.05;;;11.00;;
5133;SDS011;2585;48.696;10.066;2023-03-05T13:39:20;17.40;;;10.07;;
5133;SDS011;2585;48.696;10.066;2023-03-05T13:41:57;27.83;;;11.88;;
5133;SDS011;2585;48.696;10.066;2023-03-05T13:44:26;18.42;;;10.10;;
5133;SDS011;2585;48.696;10.066;2023-03-05T13:47:05;28.35;;;12.80;;
5133;SDS011;2585;48.696;10.066;2023-03-05T13:49:33;23.67;;;11.23;;
5133;SDS011;2585;48.696;10.066;2023-03-05T13:52:01;23.50;;;10.75;;
5133;SDS011;2585;48.696;10.066;2023-03-05T13:54:28;24.67;;;13.05;;
5133;SDS011;2585;48.696;10.066;2023-03-05T13:56:56;20.40;;;11.30;;
5133;SDS011;2585;48.696;10.066;2023-03-05T13:59:30;24.58;;;13.45;;
5133;SDS011;2585;48.696;10.066;2023-03-05T14:01:59;33.00;;;13.60;;
5133;SDS011;2585;48.696;10.066;2023-03-05T14:04:33;24.52;;;11.77;;
5133;SDS011;2585;48.696;10.066;2023-03-05T14:07:06;21.15;;;11.68;;
5133;SDS011;2585;48.696;10.066;2023-03-05T14:09:44;25.88;;;12.07;;
5133;SDS011;2585;48.696;10.066;2023-03-05T14:15:15;19.95;;;11.60;;
5133;SDS011;2585;48.696;10.066;2023-03-05T14:17:45;23.67;;;12.57;;
5133;SDS011;2585;48.696;10.066;2023-03-05T14:22:48;38.90;;;12.55;;
5133;SDS011;2585;48.696;10.066;2023-03-05T14:25:30;26.02;;;12.45;;
5133;SDS011;2585;48.696;10.066;2023-03-05T14:28:04;20.92;;;11.70;;
5133;SDS011;2585;48.696;10.066;2023-03-05T14:30:43;27.00;;;13.40;;
5133;SDS011;2585;48.696;10.066;2023-03-05T14:33:11;30.38;;;12.48;;
5133;SDS011;2585;48.696;10.066;2023-03-05T14:35:38;25.08;;;12.40;;
5133;SDS011;2585;48.696;10.066;2023-03-05T14:38:05;36.63;;;13.65;;
5133;SDS011;2585;48.696;10.066;2023-03-05T14:40:34;25.27;;;12.07;;
5133;SDS011;2585;48.696;10.066;2023-03-05T14:43:02;26.33;;;12.45;;
5133;SDS011;2585;48.696;10.066;2023-03-05T14:45:36;24.85;;;12.88;;
5133;SDS011;2585;48.696;10.066;2023-03-05T14:48:05;26.90;;;13.57;;
5133;SDS011;2585;48.696;10.066;2023-03-05T14:50:50;29.48;;;13.27;;
5133;SDS011;2585;48.696;10.066;2023-03-05T14:53:23;32.17;;;14.20;;
5133;SDS011;2585;48.696;10.066;2023-03-05T14:55:53;27.08;;;13.25;;
5133;SDS011;2585;48.696;10.066;2023-03-05T14:58:23;35.47;;;16.45;;
5133;SDS011;2585;48.696;10.066;2023-03-05T15:00:52;25.70;;;13.13;;
5133;SDS011;2585;48.696;10.066;2023-03-05T15:03:20;25.80;;;14.05;;
5133;SDS011;2585;48.696;10.066;2023-03-05T15:05:49;29.80;;;14.30;;
5133;SDS011;2585;48.696;10.066;2023-03-05T15:08:19;27.77;;;13.85;;
5133;SDS011;2585;48.696;10.066;2023-03-05T15:10:51;33.05;;;14.50;;
5133;SDS011;2585;48.696;10.066;2023-03-05T15:13:18;28.85;;;12.95;;
5133;SDS011;2585;48.696;10.066;2023-03-05T15:15:46;24.20;;;13.43;;
5133;SDS011;2585;48.696;10.066;2023-03-05T15:18:14;26.75;;;12.55;;
5133;SDS011;2585;48.696;10.066;2023-03-05T15:20:43;29.00;;;13.93;;
5133;SDS011;2585;48.696;10.066;2023-03-05T15:23:10;26.30;;;12.82;;
5133;SDS011;2585;48.696;10.066;2023-03-05T15:25:38;33.53;;;15.20;;
5133;SDS011;2585;48.696;10.066;2023-03-05T15:28:05;38.00;;;18.92;;
5133;SDS011;2585;48.696;10.066;2023-03-05T15:30:32;31.73;;;15.43;;
5133;SDS011;2585;48.696;10.066;2023-03-05T15:33:08;34.03;;;15.25;;
5133;SDS011;2585;48.696;10.066;2023-03-05T15:35:36;32.05;;;14.90;;
5133;SDS011;2585;48.696;10.066;2023-03-05T15:38:03;35.03;;;15.35;;
5133;SDS011;2585;48.696;10.066;2023-03-05T15:40:30;33.03;;;14.82;;
5133;SDS011;2585;48.696;10.066;2023-03-05T15:42:58;28.30;;;13.73;;
5133;SDS011;2585;48.696;10.066;2023-03-05T15:45:26;37.65;;;18.65;;
5133;SDS011;2585;48.696;10.066;2023-03-05T15:47:53;44.30;;;20.75;;
5133;SDS011;2585;48.696;10.066;2023-03-05T15:50:20;35.40;;;17.75;;
5133;SDS011;2585;48.696;10.066;2023-03-05T15:52:48;31.63;;;15.57;;
5133;SDS011;2585;48.696;10.066;2023-03-05T15:55:14;37.90;;;16.20;;
5133;SDS011;2585;48.696;10.066;2023-03-05T15:57:44;32.13;;;15.70;;
5133;SDS011;2585;48.696;10.066;2023-03-05T16:00:16;32.53;;;14.88;;
5133;SDS011;2585;48.696;10.066;2023-03-05T16:02:50;28.55;;;12.52;;
5133;SDS011;2585;48.696;10.066;2023-03-05T16:05:17;29.92;;;14.82;;
5133;SDS011;2585;48.696;10.066;2023-03-05T16:07:44;33.63;;;16.00;;
5133;SDS011;2585;48.696;10.066;2023-03-05T16:10:16;34.40;;;13.55;;